createdAt,value
2022-08-03T03:47:32.353Z,80.10
2022-08-03T03:50:00.087Z,80.30
2022-08-03T03:52:27.117Z,80.10
2022-08-03T03:54:57.562Z,80.20
2022-08-03T03:57:27.920Z,80.40
2022-08-03T03:59:54.950Z,80.20
2022-08-03T04:02:21.948Z,80.30
2022-08-03T04:05:07.443Z,80.50
2022-08-03T04:07:59.037Z,80.70
2022-08-03T04:10:46.472Z,80.70
2022-08-03T04:13:13.982Z,80.70
2022-08-03T04:15:42.716Z,81.20
2022-08-03T04:18:11.438Z,81.40
2022-08-03T04:20:39.002Z,81.50
2022-08-03T04:23:13.716Z,81.60
2022-08-03T04:25:43.560Z,81.70
2022-08-03T04:28:31.239Z,81.20
2022-08-03T04:30:58.981Z,81.30
2022-08-03T04:33:29.470Z,81.40
2022-08-03T04:36:01.258Z,81.20
2022-08-03T04:38:30.523Z,81.50
2022-08-03T04:40:57.946Z,81.60
2022-08-03T04:43:25.636Z,81.60
2022-08-03T04:45:53.272Z,81.60
2022-08-03T04:48:20.663Z,81.80
2022-08-03T04:50:48.010Z,81.90
2022-08-03T04:53:16.293Z,81.80
2022-08-03T04:55:43.724Z,82.20
2022-08-03T04:58:10.828Z,82.40
2022-08-03T05:00:37.930Z,82.60
2022-08-03T05:03:04.945Z,82.60
2022-08-03T05:05:51.246Z,82.90
2022-08-03T05:08:20.613Z,83.30
2022-08-03T05:10:55.840Z,83.40
2022-08-03T05:13:26.536Z,83.50
2022-08-03T05:15:53.526Z,83.70
2022-08-03T05:18:20.514Z,83.90
2022-08-03T05:20:47.514Z,83.90
2022-08-03T05:23:14.491Z,84.10
2022-08-03T05:25:46.163Z,84.20
2022-08-03T05:28:16.929Z,84.70
2022-08-03T05:30:43.945Z,84.80
2022-08-03T05:33:11.100Z,85.00
2022-08-03T05:36:00.873Z,85.50
2022-08-03T05:38:28.548Z,85.60
2022-08-03T05:40:57.366Z,85.60
2022-08-03T05:43:44.193Z,85.80
2022-08-03T05:46:13.078Z,86.10
2022-08-03T05:48:40.528Z,86.30
2022-08-03T05:51:11.422Z,86.30
2022-08-03T05:53:39.609Z,86.30
2022-08-03T05:56:15.263Z,86.50
2022-08-03T05:58:44.277Z,86.50
2022-08-03T06:01:11.824Z,86.70
2022-08-03T06:03:38.983Z,86.70
2022-08-03T06:06:06.017Z,86.70
2022-08-03T06:08:33.060Z,86.40
2022-08-03T06:11:00.078Z,86.30
2022-08-03T06:13:27.098Z,85.40
2022-08-03T06:15:54.392Z,84.50
2022-08-03T06:18:21.518Z,84.30
2022-08-03T06:20:49.476Z,82.70
2022-08-03T06:23:17.866Z,82.50
2022-08-03T06:25:44.965Z,82.40
2022-08-03T06:28:35.444Z,82.50
2022-08-03T06:31:01.382Z,83.10
2022-08-03T06:34:30.851Z,82.90
2022-08-03T06:36:15.640Z,83.20
2022-08-03T06:38:42.639Z,82.50
2022-08-03T06:41:09.686Z,82.00
2022-08-03T06:43:37.939Z,81.90
2022-08-03T06:46:24.592Z,81.40
2022-08-03T06:48:53.084Z,81.40
2022-08-03T06:51:20.200Z,81.90
2022-08-03T06:53:47.303Z,81.60
2022-08-03T06:56:14.470Z,82.00
2022-08-03T06:58:41.513Z,82.00
2022-08-03T07:01:08.881Z,81.90
2022-08-03T07:03:35.973Z,81.60
2022-08-03T07:06:19.004Z,81.80
2022-08-03T07:08:48.510Z,81.80
2022-08-03T07:11:17.630Z,81.50
2022-08-03T07:13:44.664Z,80.90
2022-08-03T07:16:11.886Z,80.90
2022-08-03T07:18:39.438Z,80.80
2022-08-03T07:21:08.032Z,80.70
2022-08-03T07:23:35.028Z,80.30
2022-08-03T07:26:02.000Z,79.50
2022-08-03T07:28:29.128Z,79.30
2022-08-03T07:30:56.129Z,79.30
2022-08-03T07:33:23.092Z,79.20
2022-08-03T07:35:50.079Z,79.10
2022-08-03T07:38:17.041Z,79.10
2022-08-03T07:40:46.291Z,78.90
2022-08-03T07:43:13.566Z,78.80
2022-08-03T07:45:40.599Z,79.10
2022-08-03T07:48:12.205Z,78.80
2022-08-03T07:50:39.666Z,78.90
2022-08-03T07:53:06.659Z,78.70
2022-08-03T07:55:33.945Z,79.00
2022-08-03T07:58:04.899Z,79.20
2022-08-03T08:00:32.220Z,79.20
2022-08-03T08:02:59.440Z,79.10
2022-08-03T08:05:26.870Z,78.80
2022-08-03T08:07:54.162Z,79.00
2022-08-03T08:10:21.261Z,78.50
2022-08-03T08:12:48.377Z,78.10
2022-08-03T08:15:15.444Z,78.40
2022-08-03T08:17:43.478Z,78.30
2022-08-03T08:20:11.390Z,77.90
2022-08-03T08:22:38.415Z,77.50
2022-08-03T08:25:07.650Z,77.70
2022-08-03T08:28:31.261Z,77.80
2022-08-03T08:30:27.888Z,77.40
2022-08-03T08:32:57.637Z,77.50
2022-08-03T08:35:24.667Z,77.00
2022-08-03T08:37:51.678Z,76.90
2022-08-03T08:40:20.745Z,76.80
2022-08-03T08:42:57.967Z,75.90
2022-08-03T08:45:25.979Z,75.90
2022-08-03T08:48:00.192Z,75.30
2022-08-03T08:50:29.971Z,75.30
2022-08-03T08:53:00.378Z,74.80
2022-08-03T08:55:27.615Z,74.90
2022-08-03T08:57:59.296Z,74.70
2022-08-03T09:00:26.385Z,74.50
2022-08-03T09:02:53.596Z,74.70
2022-08-03T09:05:31.489Z,74.30
2022-08-03T09:08:07.726Z,74.10
2022-08-03T09:10:35.204Z,73.80
2022-08-03T09:13:53.717Z,73.10
2022-08-03T09:16:22.474Z,73.20
2022-08-03T09:18:50.950Z,73.30
2022-08-03T09:21:31.178Z,73.20
2022-08-03T09:24:02.828Z,72.40
2022-08-03T09:26:31.369Z,71.80
2022-08-03T09:29:11.222Z,71.90
2022-08-03T09:31:45.313Z,71.90
2022-08-03T09:34:13.567Z,71.20
2022-08-03T09:36:46.331Z,71.10
2022-08-03T09:39:16.418Z,69.20
2022-08-03T09:41:44.606Z,69.00
2022-08-03T09:44:24.596Z,68.70
2022-08-03T09:46:54.711Z,68.40
2022-08-03T09:49:22.082Z,68.10
2022-08-03T09:52:32.046Z,68.10
2022-08-03T09:54:36.212Z,68.40
2022-08-03T09:57:03.242Z,67.60
2022-08-03T09:59:31.780Z,68.30
2022-08-03T10:01:59.892Z,68.00
2022-08-03T10:04:27.522Z,67.60
2022-08-03T10:07:07.750Z,67.50
2022-08-03T10:09:35.395Z,67.90
2022-08-03T10:12:12.580Z,67.70
2022-08-03T10:14:40.329Z,67.20
2022-08-03T10:17:07.534Z,67.40
2022-08-03T10:19:34.670Z,67.00
2022-08-03T10:22:03.421Z,66.20
2022-08-03T10:24:33.730Z,66.90
2022-08-03T10:27:02.745Z,66.80
2022-08-03T10:29:34.461Z,65.40
2022-08-03T10:32:04.171Z,66.60
2022-08-03T10:34:35.026Z,66.00
2022-08-03T10:37:03.495Z,66.40
2022-08-03T10:39:30.716Z,65.50
2022-08-03T10:42:00.030Z,66.10
2022-08-03T10:44:32.998Z,66.00
2022-08-03T10:47:00.682Z,64.60
2022-08-03T10:49:33.950Z,64.60
2022-08-03T10:52:13.757Z,64.80
2022-08-03T10:55:09.968Z,65.50
2022-08-03T10:57:45.831Z,65.40
2022-08-03T11:00:15.456Z,64.10
2022-08-03T11:03:01.038Z,64.90
2022-08-03T11:05:29.076Z,63.00
2022-08-03T11:08:14.648Z,62.30
2022-08-03T11:10:41.710Z,63.80
2022-08-03T11:13:09.222Z,64.40
2022-08-03T11:15:37.027Z,64.90
2022-08-03T11:18:11.044Z,64.40
2022-08-03T11:20:48.425Z,63.70
2022-08-03T11:23:16.993Z,61.70
2022-08-03T11:26:02.650Z,62.80
2022-08-03T11:28:30.677Z,61.50
2022-08-03T11:31:39.159Z,62.30
2022-08-03T11:34:08.473Z,62.70
2022-08-03T11:36:53.957Z,62.80
2022-08-03T11:39:20.982Z,62.90
2022-08-03T11:41:47.973Z,63.00
2022-08-03T11:44:33.816Z,63.40
2022-08-03T11:47:00.839Z,63.40
2022-08-03T11:49:27.929Z,64.10
2022-08-03T11:51:54.927Z,63.30
2022-08-03T11:54:22.843Z,63.30
2022-08-03T11:56:50.270Z,61.90
2022-08-03T11:59:22.249Z,62.80
2022-08-03T12:01:49.909Z,64.20
2022-08-03T12:04:16.978Z,63.00
2022-08-03T12:06:58.292Z,63.30
2022-08-03T12:09:25.272Z,62.60
2022-08-03T12:11:59.927Z,62.80
2022-08-03T12:14:50.468Z,62.90
2022-08-03T12:17:15.651Z,61.20
2022-08-03T12:19:43.269Z,61.30
2022-08-03T12:22:10.275Z,60.20
2022-08-03T12:24:46.608Z,60.80
2022-08-03T12:27:22.891Z,59.20
2022-08-03T12:29:58.401Z,59.80
2022-08-03T12:32:26.921Z,59.60
2022-08-03T12:34:54.209Z,59.20
2022-08-03T12:37:22.784Z,59.40
2022-08-03T12:40:03.065Z,58.40
2022-08-03T12:42:35.392Z,58.30
2022-08-03T12:45:21.283Z,58.90
2022-08-03T12:47:52.028Z,59.00
2022-08-03T12:50:26.533Z,58.50
2022-08-03T12:52:53.594Z,58.40
2022-08-03T12:55:21.798Z,58.70
2022-08-03T12:57:49.519Z,57.20
2022-08-03T13:00:28.995Z,57.70
2022-08-03T13:03:38.548Z,56.40
2022-08-03T13:05:49.461Z,56.10
2022-08-03T13:08:19.996Z,55.90
2022-08-03T13:10:47.070Z,55.90
2022-08-03T13:13:14.394Z,55.80
2022-08-03T13:15:48.060Z,56.00
2022-08-03T13:18:17.373Z,56.80
2022-08-03T13:20:44.751Z,56.40
2022-08-03T13:23:13.885Z,56.40
2022-08-03T13:25:55.483Z,54.30
2022-08-03T13:28:23.355Z,55.30
2022-08-03T13:30:50.346Z,55.10
2022-08-03T13:33:17.575Z,57.40
2022-08-03T13:35:44.570Z,54.80
2022-08-03T13:38:11.704Z,53.40
2022-08-03T13:40:41.735Z,54.90
2022-08-03T13:43:09.115Z,55.90
2022-08-03T13:45:36.116Z,55.60
2022-08-03T13:48:03.146Z,53.40
2022-08-03T13:50:31.299Z,53.80
2022-08-03T13:52:58.305Z,54.20
2022-08-03T13:55:25.261Z,54.10
2022-08-03T13:58:04.669Z,55.00
2022-08-03T14:00:34.236Z,54.40
2022-08-03T14:03:09.225Z,54.50
2022-08-03T14:05:40.873Z,55.10
2022-08-03T14:08:08.042Z,53.10
2022-08-03T14:10:40.252Z,53.80
2022-08-03T14:13:07.752Z,53.90
2022-08-03T14:15:37.523Z,53.40
2022-08-03T14:18:06.346Z,54.60
2022-08-03T14:20:38.034Z,52.60
2022-08-03T14:23:14.406Z,53.10
2022-08-03T14:25:50.292Z,53.40
2022-08-03T14:28:20.367Z,52.50
2022-08-03T14:30:48.534Z,52.60
2022-08-03T14:33:15.791Z,53.00
2022-08-03T14:35:42.850Z,52.60
2022-08-03T14:38:09.841Z,52.30
2022-08-03T14:40:36.838Z,54.50
2022-08-03T14:43:03.918Z,53.20
2022-08-03T14:45:31.144Z,51.90
2022-08-03T14:50:27.803Z,52.10
2022-08-03T14:50:50.930Z,51.30
2022-08-03T14:53:19.382Z,52.50
2022-08-03T14:55:49.621Z,51.70
2022-08-03T14:58:21.166Z,52.40
2022-08-03T15:00:49.874Z,53.40
2022-08-03T15:03:17.615Z,54.50
2022-08-03T15:05:44.744Z,52.30
2022-08-03T15:08:11.761Z,52.00
2022-08-03T15:10:43.940Z,52.90
2022-08-03T15:13:15.045Z,52.80
2022-08-03T15:15:42.356Z,52.00
2022-08-03T15:18:09.468Z,51.30
2022-08-03T15:20:45.952Z,53.20
2022-08-03T15:23:14.390Z,53.30
2022-08-03T15:26:29.394Z,53.30
2022-08-03T15:28:29.570Z,53.00
2022-08-03T15:30:56.599Z,51.60
2022-08-03T15:33:23.605Z,53.10
2022-08-03T15:35:50.712Z,52.80
2022-08-03T15:38:17.729Z,53.70
2022-08-03T15:40:45.360Z,52.80
2022-08-03T15:43:12.403Z,51.80
2022-08-03T15:45:40.587Z,51.70
2022-08-03T15:48:09.082Z,53.30
2022-08-03T15:50:36.227Z,54.90
2022-08-03T15:53:04.006Z,51.60
2022-08-03T15:55:31.471Z,52.30
2022-08-03T15:59:11.277Z,53.50
2022-08-03T16:00:45.514Z,52.10
2022-08-03T16:03:12.497Z,53.20
2022-08-03T16:05:39.560Z,51.80
2022-08-03T16:08:10.407Z,52.90
2022-08-03T16:10:40.666Z,51.10
2022-08-03T16:13:07.984Z,52.40
2022-08-03T16:15:38.640Z,53.00
2022-08-03T16:18:06.383Z,51.70
2022-08-03T16:20:35.169Z,51.70
2022-08-03T16:23:10.898Z,52.10
2022-08-03T16:25:39.803Z,51.90
2022-08-03T16:28:13.150Z,52.00
2022-08-03T16:30:42.006Z,51.90
2022-08-03T16:33:09.085Z,52.40
2022-08-03T16:35:36.180Z,52.50
2022-08-03T16:38:07.830Z,52.40
2022-08-03T16:40:36.447Z,51.30
2022-08-03T16:43:10.618Z,50.60
2022-08-03T16:45:48.605Z,52.10
2022-08-03T16:48:16.068Z,52.00
2022-08-03T16:50:43.327Z,49.40
2022-08-03T16:53:16.684Z,46.90
2022-08-03T16:55:53.654Z,43.30
2022-08-03T16:58:41.307Z,42.70
2022-08-03T17:01:21.733Z,42.50
2022-08-03T17:04:03.051Z,44.10
2022-08-03T17:06:34.321Z,46.70
2022-08-03T17:09:03.437Z,45.00
2022-08-03T17:11:32.160Z,47.00
2022-08-03T17:14:00.497Z,47.90
2022-08-03T17:16:27.462Z,49.60
2022-08-03T17:18:56.518Z,48.80
2022-08-03T17:21:29.269Z,49.20
2022-08-03T17:23:59.947Z,48.70
2022-08-03T17:26:30.292Z,49.40
2022-08-03T17:29:02.179Z,49.90
2022-08-03T17:31:48.891Z,49.30
2022-08-03T17:34:17.739Z,49.50
2022-08-03T17:39:56.121Z,49.80
2022-08-03T17:42:29.071Z,50.10
2022-08-03T17:45:02.119Z,50.80
2022-08-03T17:47:42.820Z,52.50
2022-08-03T17:50:25.230Z,52.30
2022-08-03T17:53:07.624Z,52.10
2022-08-03T17:55:57.228Z,52.40
2022-08-03T17:58:52.357Z,52.80
2022-08-03T18:01:59.127Z,54.60
2022-08-03T18:04:30.169Z,52.90
2022-08-03T18:06:59.417Z,53.10
2022-08-03T18:10:05.317Z,54.90
2022-08-03T18:12:18.511Z,54.10
2022-08-03T18:14:57.833Z,55.40
2022-08-03T18:17:55.766Z,55.60
2022-08-03T18:20:32.213Z,55.50
2022-08-03T18:23:04.732Z,56.10
2022-08-03T18:25:45.618Z,54.80
2022-08-03T18:28:18.687Z,56.40
2022-08-03T18:30:54.154Z,56.30
2022-08-03T18:34:19.531Z,57.00
2022-08-03T18:36:17.499Z,57.10
2022-08-03T18:38:46.911Z,57.20
2022-08-03T18:41:20.542Z,56.90
2022-08-03T18:44:07.275Z,55.70
2022-08-03T18:46:49.633Z,56.40
2022-08-03T18:49:34.444Z,57.00
2022-08-03T18:52:12.360Z,55.90
2022-08-03T18:55:02.482Z,56.90
2022-08-03T18:57:43.505Z,55.60
2022-08-03T19:00:15.517Z,55.70
2022-08-03T19:02:42.465Z,55.80
2022-08-03T19:05:18.027Z,55.80
2022-08-03T19:07:58.397Z,56.00
2022-08-03T19:10:30.306Z,55.30
2022-08-03T19:13:02.456Z,56.00
2022-08-03T19:15:36.339Z,55.90
2022-08-03T19:18:08.886Z,56.20
2022-08-03T19:20:37.724Z,56.10
2022-08-03T19:23:04.913Z,55.80
2022-08-03T19:25:37.831Z,55.90
2022-08-03T19:28:05.938Z,56.40
2022-08-03T19:30:38.958Z,56.10
2022-08-03T19:33:08.141Z,56.00
2022-08-03T19:35:52.142Z,56.10
2022-08-03T19:38:28.256Z,55.70
2022-08-03T19:40:58.243Z,56.10
2022-08-03T19:43:33.352Z,56.30
2022-08-03T19:46:16.921Z,56.30
2022-08-03T19:48:51.849Z,56.80
2022-08-03T19:51:26.500Z,59.10
2022-08-03T19:54:10.025Z,58.90
2022-08-03T19:56:42.746Z,59.10
2022-08-03T19:59:13.410Z,59.20
2022-08-03T20:01:50.466Z,59.30
2022-08-03T20:04:18.579Z,59.80
2022-08-03T20:06:48.038Z,60.10
2022-08-03T20:09:18.002Z,60.10
2022-08-03T20:11:46.752Z,60.50
2022-08-03T20:14:20.786Z,60.00
2022-08-03T20:16:54.048Z,59.90
2022-08-03T20:19:21.405Z,59.90
2022-08-03T20:21:49.890Z,59.80
2022-08-03T20:24:23.875Z,59.80
2022-08-03T20:26:53.375Z,60.10
2022-08-03T20:30:06.206Z,59.90
2022-08-03T20:32:12.450Z,60.20
2022-08-03T20:34:39.763Z,61.30
2022-08-03T20:37:07.130Z,61.50
2022-08-03T20:39:36.635Z,61.50
2022-08-03T20:42:04.610Z,60.80
2022-08-03T20:44:31.778Z,61.00
2022-08-03T20:47:00.733Z,60.30
2022-08-03T20:49:28.114Z,61.60
2022-08-03T20:51:55.269Z,63.20
2022-08-03T20:54:31.243Z,63.00
2022-08-03T20:56:59.852Z,64.10
2022-08-03T20:59:38.539Z,63.20
2022-08-03T21:02:19.730Z,63.50
2022-08-03T21:04:56.395Z,63.80
2022-08-03T21:07:23.882Z,64.20
2022-08-03T21:09:52.567Z,64.30
2022-08-03T21:12:26.794Z,64.50
2022-08-03T21:15:03.279Z,64.50
2022-08-03T21:17:40.826Z,65.30
2022-08-03T21:20:08.904Z,64.90
2022-08-03T21:22:37.196Z,64.90
2022-08-03T21:25:07.198Z,64.90
2022-08-03T21:27:34.326Z,64.80
2022-08-03T21:30:02.936Z,65.20
2022-08-03T21:32:33.553Z,65.30
2022-08-03T21:35:01.198Z,65.10
2022-08-03T21:37:28.489Z,65.10
2022-08-03T21:39:55.815Z,65.20
2022-08-03T21:42:25.698Z,65.30
2022-08-03T21:44:53.200Z,65.80
2022-08-03T21:47:23.731Z,65.90
2022-08-03T21:50:06.514Z,65.60
2022-08-03T21:52:41.208Z,65.80
2022-08-03T21:55:08.623Z,65.30
2022-08-03T21:57:49.505Z,65.40
2022-08-03T22:00:17.883Z,65.80
2022-08-03T22:02:53.061Z,65.90
2022-08-03T22:05:29.072Z,66.00
2022-08-03T22:08:10.683Z,65.90
2022-08-03T22:10:37.895Z,65.80
2022-08-03T22:13:04.872Z,65.10
2022-08-03T22:15:32.355Z,64.90
2022-08-03T22:18:03.304Z,66.00
2022-08-03T22:20:30.268Z,66.10
2022-08-03T22:23:00.385Z,66.10
2022-08-03T22:25:29.231Z,65.80
2022-08-03T22:27:57.172Z,66.20
2022-08-03T22:30:24.223Z,66.20
2022-08-03T22:32:53.189Z,65.70
2022-08-03T22:35:21.294Z,65.80
2022-08-03T22:37:49.493Z,66.20
2022-08-03T22:40:17.426Z,65.70
2022-08-03T22:42:52.274Z,66.10
2022-08-03T22:46:07.771Z,65.90
2022-08-03T22:48:07.732Z,66.10
2022-08-03T22:50:35.076Z,66.60
2022-08-03T22:53:02.493Z,66.40
2022-08-03T22:55:29.499Z,66.50
2022-08-03T22:57:56.699Z,66.20
